createdAt,value
2019-03-27T00:00:35.932Z,0.00
2019-03-27T00:01:35.929Z,0.00
2019-03-27T00:02:35.917Z,0.00
2019-03-27T00:03:35.907Z,0.00
2019-03-27T00:04:35.896Z,0.00
2019-03-27T00:05:35.891Z,0.00
2019-03-27T00:06:35.880Z,0.00
2019-03-27T00:07:35.869Z,0.00
2019-03-27T00:08:35.860Z,0.00
2019-03-27T00:09:35.853Z,0.00
2019-03-27T00:10:35.845Z,0.00
2019-03-27T00:11:35.836Z,0.00
2019-03-27T00:12:35.826Z,0.00
2019-03-27T00:13:35.814Z,0.00
2019-03-27T00:14:35.806Z,0.00
2019-03-27T00:15:35.796Z,0.00
2019-03-27T00:16:35.788Z,0.00
2019-03-27T00:17:35.776Z,0.00
2019-03-27T00:18:35.771Z,0.00
2019-03-27T00:19:35.761Z,0.00
2019-03-27T00:20:35.750Z,0.00
2019-03-27T00:21:35.742Z,0.00
2019-03-27T00:22:35.735Z,0.00
2019-03-27T00:23:35.724Z,0.00
2019-03-27T00:24:35.713Z,0.00
2019-03-27T00:25:35.706Z,0.00
2019-03-27T00:26:35.697Z,0.00
2019-03-27T00:27:35.684Z,0.00
2019-03-27T00:28:35.676Z,0.00
2019-03-27T00:29:35.671Z,0.00
2019-03-27T00:30:35.661Z,0.00
2019-03-27T00:31:35.648Z,0.00
2019-03-27T00:32:35.642Z,0.00
2019-03-27T00:33:35.631Z,0.00
2019-03-27T00:34:35.625Z,0.00
2019-03-27T00:35:35.615Z,0.00
2019-03-27T00:36:35.602Z,0.00
2019-03-27T00:37:35.593Z,0.00
2019-03-27T00:38:35.588Z,0.00
2019-03-27T00:39:35.576Z,0.00
2019-03-27T00:40:35.569Z,0.00
2019-03-27T00:41:35.560Z,0.00
2019-03-27T00:42:35.548Z,0.00
2019-03-27T00:43:35.540Z,0.00
2019-03-27T00:44:35.528Z,0.00
2019-03-27T00:45:35.520Z,0.00
2019-03-27T00:46:35.512Z,0.00
2019-03-27T00:47:35.502Z,0.00
2019-03-27T00:48:35.494Z,0.00
2019-03-27T00:49:35.483Z,0.00
2019-03-27T00:50:35.480Z,0.00
2019-03-27T00:51:35.473Z,0.00
2019-03-27T00:52:35.460Z,0.00
2019-03-27T00:53:35.448Z,0.00
2019-03-27T00:54:35.440Z,0.00
2019-03-27T00:55:35.436Z,0.00
2019-03-27T00:56:35.421Z,0.00
2019-03-27T00:57:35.413Z,0.00
2019-03-27T00:58:35.406Z,0.00
2019-03-27T00:59:35.395Z,0.00
2019-03-27T01:00:35.384Z,0.00
2019-03-27T01:01:35.375Z,0.00
2019-03-27T01:02:35.368Z,0.00
2019-03-27T01:03:35.358Z,0.00
2019-03-27T01:04:35.347Z,0.00
2019-03-27T01:05:35.340Z,0.00
2019-03-27T01:06:35.331Z,0.00
2019-03-27T01:07:35.321Z,0.00
2019-03-27T01:08:35.312Z,0.00
2019-03-27T01:09:35.308Z,0.00
2019-03-27T01:10:35.293Z,0.00
2019-03-27T01:11:35.286Z,0.00
2019-03-27T01:12:35.275Z,0.00
2019-03-27T01:13:35.267Z,0.00
2019-03-27T01:14:35.259Z,0.00
2019-03-27T01:15:39.973Z,0.00
2019-03-27T01:16:35.239Z,0.00
2019-03-27T01:17:35.230Z,0.00
2019-03-27T01:18:35.311Z,0.00
2019-03-27T01:19:35.213Z,0.00
2019-03-27T01:20:35.202Z,0.00
2019-03-27T01:21:35.198Z,0.00
2019-03-27T01:22:35.187Z,0.00
2019-03-27T01:23:35.177Z,0.00
2019-03-27T01:24:35.168Z,0.00
2019-03-27T01:25:35.157Z,0.00
2019-03-27T01:26:35.149Z,0.00
2019-03-27T01:27:35.808Z,0.00
2019-03-27T01:28:35.129Z,0.00
2019-03-27T01:29:35.124Z,0.00
2019-03-27T01:30:35.110Z,0.00
2019-03-27T01:31:35.103Z,0.00
2019-03-27T01:32:35.094Z,0.00
2019-03-27T01:33:35.086Z,0.00
2019-03-27T01:34:35.077Z,0.00
2019-03-27T01:35:35.066Z,0.00
2019-03-27T01:36:35.057Z,0.00
2019-03-27T01:37:35.048Z,0.00
2019-03-27T01:38:35.047Z,0.00
2019-03-27T01:39:35.030Z,0.00
2019-03-27T01:40:35.020Z,0.00
2019-03-27T01:41:35.012Z,0.00
2019-03-27T01:42:35.001Z,0.00
2019-03-27T01:43:35.021Z,0.00
2019-03-27T01:44:34.987Z,0.00
2019-03-27T01:45:34.974Z,0.00
2019-03-27T01:46:34.966Z,0.00
2019-03-27T01:47:34.961Z,0.00
2019-03-27T01:48:34.948Z,0.00
2019-03-27T01:49:34.940Z,0.00
2019-03-27T01:50:34.933Z,0.00
2019-03-27T01:51:34.921Z,0.00
2019-03-27T01:52:34.912Z,0.00
2019-03-27T01:53:34.909Z,0.00
2019-03-27T01:54:34.891Z,0.00
2019-03-27T01:55:34.885Z,0.00
2019-03-27T01:56:34.874Z,0.00
2019-03-27T01:57:34.870Z,0.00
2019-03-27T01:58:34.857Z,0.00
2019-03-27T01:59:34.847Z,0.00
2019-03-27T02:00:34.838Z,0.00
2019-03-27T02:01:34.831Z,0.00
2019-03-27T02:02:34.821Z,0.00
2019-03-27T02:03:34.811Z,0.00
2019-03-27T02:04:34.797Z,0.00
2019-03-27T02:05:34.791Z,0.00
2019-03-27T02:06:34.796Z,0.00
2019-03-27T02:07:34.774Z,0.00
2019-03-27T02:08:34.764Z,0.00
2019-03-27T02:09:34.797Z,0.00
2019-03-27T02:10:34.747Z,0.00
2019-03-27T02:11:34.738Z,0.00
2019-03-27T02:12:34.727Z,0.00
2019-03-27T02:13:34.719Z,0.00
2019-03-27T02:14:34.710Z,0.00
2019-03-27T02:15:34.700Z,0.00
2019-03-27T02:16:34.692Z,0.00
2019-03-27T02:17:34.679Z,0.00
2019-03-27T02:18:34.672Z,0.00
2019-03-27T02:19:34.667Z,0.00
2019-03-27T02:20:34.657Z,0.00
2019-03-27T02:21:34.647Z,0.00
2019-03-27T02:22:34.639Z,0.00
2019-03-27T02:23:34.630Z,0.00
2019-03-27T02:24:34.620Z,0.00
2019-03-27T02:25:34.612Z,0.00
2019-03-27T02:26:34.601Z,0.00
2019-03-27T02:27:34.593Z,0.00
2019-03-27T02:28:34.584Z,0.00
2019-03-27T02:29:34.576Z,0.00
2019-03-27T02:30:34.576Z,0.00
2019-03-27T02:31:34.555Z,0.00
2019-03-27T02:32:34.547Z,0.00
2019-03-27T02:33:34.542Z,0.00
2019-03-27T02:34:34.530Z,0.00
2019-03-27T02:35:34.525Z,0.00
2019-03-27T02:36:34.518Z,0.00
2019-03-27T02:37:34.507Z,0.00
2019-03-27T02:38:34.498Z,0.00
2019-03-27T02:39:34.486Z,0.00
2019-03-27T02:40:34.478Z,0.00
2019-03-27T02:41:34.466Z,0.00
2019-03-27T02:42:34.459Z,0.00
2019-03-27T02:43:34.450Z,0.00
2019-03-27T02:44:34.441Z,0.00
2019-03-27T02:45:34.432Z,0.00
2019-03-27T02:46:34.423Z,0.00
2019-03-27T02:47:34.416Z,0.00
2019-03-27T02:48:34.411Z,0.00
2019-03-27T02:49:34.416Z,0.00
2019-03-27T02:50:34.389Z,0.00
2019-03-27T02:51:34.379Z,0.00
2019-03-27T02:52:34.369Z,0.00
2019-03-27T02:53:34.364Z,0.00
2019-03-27T02:54:34.353Z,0.00
2019-03-27T02:55:34.342Z,0.00
2019-03-27T02:56:34.340Z,0.00
2019-03-27T02:57:34.323Z,0.00
2019-03-27T02:58:34.319Z,0.00
2019-03-27T02:59:34.309Z,0.00
2019-03-27T03:00:34.299Z,0.00
2019-03-27T03:01:34.292Z,0.00
2019-03-27T03:02:34.283Z,0.00
2019-03-27T03:03:34.281Z,0.00
2019-03-27T03:04:34.263Z,0.00
2019-03-27T03:05:34.260Z,0.00
2019-03-27T03:06:34.251Z,0.00
2019-03-27T03:07:34.237Z,0.00
2019-03-27T03:08:34.222Z,0.00
2019-03-27T03:09:34.219Z,0.00
2019-03-27T03:10:34.208Z,0.00
2019-03-27T03:11:34.200Z,0.00
2019-03-27T03:12:34.189Z,0.00
2019-03-27T03:13:34.262Z,0.00
2019-03-27T03:14:34.172Z,0.00
2019-03-27T03:15:34.168Z,0.00
2019-03-27T03:16:41.882Z,0.00
2019-03-27T03:17:34.151Z,0.00
2019-03-27T03:18:34.137Z,0.00
2019-03-27T03:19:34.129Z,0.00
2019-03-27T03:20:34.127Z,0.00
2019-03-27T03:21:34.111Z,0.00
2019-03-27T03:22:34.103Z,0.00
2019-03-27T03:23:34.093Z,0.00
2019-03-27T03:24:34.083Z,0.00
2019-03-27T03:25:34.077Z,0.00
2019-03-27T03:26:34.074Z,0.00
2019-03-27T03:27:34.074Z,0.00
2019-03-27T03:28:34.050Z,0.00
2019-03-27T03:29:34.040Z,0.00
2019-03-27T03:30:34.036Z,0.00
2019-03-27T03:31:34.023Z,0.00
2019-03-27T03:32:34.020Z,0.00
2019-03-27T03:33:34.005Z,0.00
2019-03-27T03:34:34.002Z,0.00
2019-03-27T03:35:33.991Z,0.00
2019-03-27T03:36:33.981Z,0.00
2019-03-27T03:37:33.975Z,0.00
2019-03-27T03:38:33.963Z,0.00
2019-03-27T03:39:33.952Z,0.00
2019-03-27T03:40:33.943Z,0.00
2019-03-27T03:41:33.932Z,0.00
2019-03-27T03:42:33.930Z,0.00
2019-03-27T03:43:33.916Z,0.00
2019-03-27T03:44:33.910Z,0.00
2019-03-27T03:45:33.898Z,0.00
2019-03-27T03:46:33.890Z,0.00
2019-03-27T03:47:33.889Z,0.00
2019-03-27T03:48:33.869Z,0.00
2019-03-27T03:49:33.865Z,0.00
2019-03-27T03:50:33.854Z,0.00
2019-03-27T03:51:33.851Z,0.00
2019-03-27T03:52:33.853Z,0.00
2019-03-27T03:53:33.828Z,0.00
2019-03-27T03:54:33.927Z,0.00
2019-03-27T03:55:33.810Z,0.00
2019-03-27T03:56:33.804Z,0.00
2019-03-27T03:57:33.793Z,0.00
2019-03-27T03:58:33.789Z,0.00
2019-03-27T03:59:33.774Z,0.00
2019-03-27T04:00:33.772Z,0.00
2019-03-27T04:01:33.756Z,0.00
2019-03-27T04:02:33.742Z,0.00
2019-03-27T04:03:33.739Z,0.00
2019-03-27T04:04:33.734Z,0.00
2019-03-27T04:05:33.725Z,0.00
2019-03-27T04:06:33.716Z,0.00
2019-03-27T04:07:33.705Z,0.00
2019-03-27T04:08:33.704Z,0.00
2019-03-27T04:09:33.691Z,0.00
2019-03-27T04:10:33.725Z,0.00
2019-03-27T04:11:33.678Z,0.00
2019-03-27T04:12:33.664Z,0.00
2019-03-27T04:13:33.653Z,0.00
2019-03-27T04:14:33.648Z,0.00
2019-03-27T04:15:33.740Z,0.00
2019-03-27T04:16:33.628Z,0.00
2019-03-27T04:17:33.617Z,0.00
2019-03-27T04:18:33.618Z,0.00
2019-03-27T04:19:33.601Z,0.00
2019-03-27T04:20:33.602Z,0.00
2019-03-27T04:21:33.593Z,0.00
2019-03-27T04:22:33.577Z,0.00
2019-03-27T04:23:33.568Z,0.00
2019-03-27T04:24:33.560Z,0.00
2019-03-27T04:26:06.372Z,0.00
2019-03-27T04:26:33.793Z,0.00
2019-03-27T04:27:33.531Z,0.00
2019-03-27T04:28:33.538Z,0.00
2019-03-27T04:29:33.521Z,0.00
2019-03-27T04:30:33.507Z,0.00
2019-03-27T04:31:33.499Z,0.00
2019-03-27T04:32:33.491Z,0.00
2019-03-27T04:33:33.481Z,0.00
2019-03-27T04:34:33.478Z,0.00
2019-03-27T04:35:33.463Z,0.00
2019-03-27T04:36:33.553Z,0.00
2019-03-27T04:37:33.446Z,0.00
2019-03-27T04:38:33.437Z,0.00
2019-03-27T04:39:33.426Z,0.00
2019-03-27T04:40:33.419Z,0.00
2019-03-27T04:41:33.410Z,0.00
2019-03-27T04:42:33.405Z,0.00
2019-03-27T04:43:33.393Z,0.00
2019-03-27T04:44:33.387Z,0.00
2019-03-27T04:45:33.376Z,0.00
2019-03-27T04:46:33.368Z,0.00
2019-03-27T04:47:33.360Z,0.00
2019-03-27T04:48:33.350Z,0.00
2019-03-27T04:49:33.344Z,0.00
2019-03-27T04:50:33.333Z,0.00
2019-03-27T04:51:33.326Z,0.00
2019-03-27T04:52:33.315Z,0.00
2019-03-27T04:53:33.307Z,0.00
2019-03-27T04:54:33.300Z,0.00
2019-03-27T04:55:33.288Z,0.00
2019-03-27T04:56:33.281Z,5.63
2019-03-27T04:57:33.273Z,5.63
2019-03-27T04:58:33.267Z,5.63
2019-03-27T04:59:33.256Z,5.63
2019-03-27T05:00:33.248Z,5.63
2019-03-27T05:01:33.240Z,5.63
2019-03-27T05:02:33.232Z,5.63
2019-03-27T05:03:33.221Z,5.63
2019-03-27T05:04:33.213Z,5.63
2019-03-27T05:05:33.214Z,5.63
2019-03-27T05:06:33.201Z,11.25
2019-03-27T05:07:33.187Z,11.25
2019-03-27T05:08:33.181Z,5.63
2019-03-27T05:09:33.170Z,11.25
2019-03-27T05:10:33.162Z,11.25
2019-03-27T05:11:33.152Z,11.25
2019-03-27T05:12:33.143Z,11.25
2019-03-27T05:13:33.138Z,11.25
2019-03-27T05:14:33.131Z,11.25
2019-03-27T05:15:33.118Z,11.25
2019-03-27T05:16:33.111Z,11.25
2019-03-27T05:17:45.279Z,11.25
2019-03-27T05:18:33.093Z,16.88
2019-03-27T05:19:33.084Z,16.88
2019-03-27T05:20:33.079Z,16.88
2019-03-27T05:21:33.073Z,11.25
2019-03-27T05:22:33.060Z,11.25
2019-03-27T05:23:33.048Z,11.25
2019-03-27T05:24:33.042Z,11.25
2019-03-27T05:25:33.033Z,11.25
2019-03-27T05:26:33.024Z,11.25
2019-03-27T05:27:36.130Z,11.25
2019-03-27T05:28:33.008Z,11.25
2019-03-27T05:29:32.999Z,11.25
2019-03-27T05:30:32.991Z,11.25
2019-03-27T05:31:32.983Z,16.88
2019-03-27T05:32:32.973Z,16.88
2019-03-27T05:33:32.977Z,16.88
2019-03-27T05:34:32.959Z,16.88
2019-03-27T05:35:32.949Z,16.88
2019-03-27T05:36:32.945Z,22.50
2019-03-27T05:37:32.931Z,16.88
2019-03-27T05:38:32.925Z,16.88
2019-03-27T05:39:32.915Z,16.88
2019-03-27T05:40:32.905Z,16.88
2019-03-27T05:41:32.895Z,16.88
2019-03-27T05:42:32.890Z,22.50
2019-03-27T05:43:32.881Z,22.50
2019-03-27T05:44:32.875Z,22.50
2019-03-27T05:45:32.863Z,22.50
2019-03-27T05:46:32.857Z,22.50
2019-03-27T05:47:32.845Z,22.50
2019-03-27T05:48:32.837Z,28.13
2019-03-27T05:49:32.829Z,28.13
2019-03-27T05:50:32.826Z,28.13
2019-03-27T05:51:32.812Z,28.13
2019-03-27T05:52:32.881Z,22.50
2019-03-27T05:53:32.794Z,28.13
2019-03-27T05:54:32.785Z,28.13
2019-03-27T05:55:32.777Z,28.13
2019-03-27T05:56:32.771Z,33.75
2019-03-27T05:57:32.761Z,33.75
2019-03-27T05:58:32.756Z,39.38
2019-03-27T05:59:32.744Z,39.38
2019-03-27T06:00:33.515Z,39.38
2019-03-27T06:01:32.729Z,39.38
2019-03-27T06:02:32.722Z,39.38
2019-03-27T06:03:32.710Z,45.00
2019-03-27T06:04:32.735Z,45.00
2019-03-27T06:05:32.695Z,45.00
2019-03-27T06:06:32.685Z,39.38
2019-03-27T06:07:32.678Z,39.38
2019-03-27T06:08:32.668Z,39.38
2019-03-27T06:09:32.663Z,39.38
2019-03-27T06:10:32.659Z,39.38
2019-03-27T06:11:32.643Z,39.38
2019-03-27T06:12:32.637Z,39.38
2019-03-27T06:13:32.630Z,33.75
2019-03-27T06:14:32.619Z,33.75
2019-03-27T06:15:32.611Z,39.38
2019-03-27T06:16:32.607Z,45.00
2019-03-27T06:17:32.594Z,50.63
2019-03-27T06:18:32.590Z,45.00
2019-03-27T06:19:32.577Z,39.38
2019-03-27T06:20:32.570Z,45.00
2019-03-27T06:21:32.563Z,50.63
2019-03-27T06:22:32.553Z,50.63
2019-03-27T06:23:32.547Z,61.88
2019-03-27T06:24:32.535Z,73.13
2019-03-27T06:25:32.531Z,67.50
2019-03-27T06:26:32.521Z,84.38
2019-03-27T06:27:32.509Z,84.38
2019-03-27T06:28:32.506Z,90.00
2019-03-27T06:29:32.501Z,90.00
2019-03-27T06:30:32.489Z,84.38
2019-03-27T06:31:32.481Z,95.63
2019-03-27T06:32:32.477Z,90.00
2019-03-27T06:33:32.460Z,101.25
2019-03-27T06:34:32.453Z,112.50
2019-03-27T06:35:32.445Z,95.63
2019-03-27T06:36:32.438Z,101.25
2019-03-27T06:37:32.435Z,129.38
2019-03-27T06:38:32.420Z,151.88
2019-03-27T06:39:32.412Z,180.00
2019-03-27T06:40:32.403Z,196.88
2019-03-27T06:41:32.395Z,157.50
2019-03-27T06:42:32.390Z,140.63
2019-03-27T06:43:32.380Z,146.25
2019-03-27T06:44:32.374Z,123.75
2019-03-27T06:45:32.365Z,118.13
2019-03-27T06:46:32.358Z,118.13
2019-03-27T06:47:32.349Z,129.38
2019-03-27T06:48:32.343Z,135.00
2019-03-27T06:49:32.335Z,112.50
2019-03-27T06:50:32.327Z,95.63
2019-03-27T06:51:39.904Z,73.13
2019-03-27T06:52:32.308Z,73.13
2019-03-27T06:53:32.300Z,61.88
2019-03-27T06:54:32.292Z,61.88
2019-03-27T06:55:32.283Z,61.88
2019-03-27T06:56:32.275Z,61.88
2019-03-27T06:57:32.269Z,61.88
2019-03-27T06:58:32.261Z,84.38
2019-03-27T06:59:32.263Z,106.88
2019-03-27T07:00:32.246Z,118.13
2019-03-27T07:01:32.239Z,140.63
2019-03-27T07:02:32.230Z,123.75
2019-03-27T07:03:32.227Z,163.13
2019-03-27T07:04:32.220Z,191.25
2019-03-27T07:05:32.208Z,219.38
2019-03-27T07:06:32.204Z,219.38
2019-03-27T07:07:32.272Z,230.63
2019-03-27T07:08:32.185Z,236.25
2019-03-27T07:09:32.245Z,236.25
2019-03-27T07:10:32.167Z,225.00
2019-03-27T07:11:32.157Z,208.13
2019-03-27T07:12:32.152Z,202.50
2019-03-27T07:13:32.146Z,196.88
2019-03-27T07:14:32.137Z,196.88
2019-03-27T07:15:35.445Z,202.50
2019-03-27T07:16:32.136Z,208.13
2019-03-27T07:17:32.122Z,219.38
2019-03-27T07:18:39.877Z,219.38
2019-03-27T07:19:32.100Z,213.75
2019-03-27T07:20:32.097Z,202.50
2019-03-27T07:21:32.091Z,196.88
2019-03-27T07:22:32.080Z,213.75
2019-03-27T07:23:32.074Z,230.63
2019-03-27T07:24:32.061Z,247.50
2019-03-27T07:25:32.054Z,258.75
2019-03-27T07:26:32.048Z,270.00
2019-03-27T07:27:32.038Z,270.00
2019-03-27T07:28:32.035Z,253.13
2019-03-27T07:29:32.024Z,225.00
2019-03-27T07:30:32.017Z,208.13
2019-03-27T07:31:32.009Z,191.25
2019-03-27T07:32:32.007Z,191.25
2019-03-27T07:33:31.995Z,191.25
2019-03-27T07:34:31.988Z,185.63
2019-03-27T07:35:31.980Z,180.00
2019-03-27T07:36:31.973Z,163.13
2019-03-27T07:37:31.966Z,174.38
2019-03-27T07:38:31.962Z,174.38
2019-03-27T07:39:31.950Z,174.38
2019-03-27T07:40:31.943Z,168.75
2019-03-27T07:41:31.938Z,157.50
2019-03-27T07:42:31.929Z,151.88
2019-03-27T07:43:31.923Z,146.25
2019-03-27T07:44:31.918Z,151.88
2019-03-27T07:45:31.910Z,157.50
2019-03-27T07:46:31.905Z,163.13
2019-03-27T07:47:31.892Z,151.88
2019-03-27T07:48:31.885Z,151.88
2019-03-27T07:49:31.877Z,151.88
2019-03-27T07:50:31.873Z,151.88
2019-03-27T07:51:31.865Z,157.50
2019-03-27T07:52:31.856Z,168.75
2019-03-27T07:53:31.846Z,180.00
2019-03-27T07:54:31.842Z,185.63
2019-03-27T07:55:31.832Z,191.25
2019-03-27T07:56:31.827Z,196.88
2019-03-27T07:57:31.821Z,202.50
2019-03-27T07:58:31.810Z,213.75
2019-03-27T07:59:31.802Z,213.75
2019-03-27T08:00:31.796Z,230.63
2019-03-27T08:01:31.789Z,230.63
2019-03-27T08:02:31.780Z,219.38
2019-03-27T08:03:31.773Z,225.00
2019-03-27T08:04:31.801Z,219.38
2019-03-27T08:05:31.759Z,202.50
2019-03-27T08:06:31.754Z,191.25
2019-03-27T08:07:31.850Z,185.63
2019-03-27T08:08:31.806Z,163.13
2019-03-27T08:09:31.731Z,163.13
2019-03-27T08:10:31.727Z,151.88
2019-03-27T08:11:31.772Z,168.75
2019-03-27T08:12:31.719Z,135.00
2019-03-27T08:13:31.701Z,112.50
2019-03-27T08:14:31.695Z,101.25
2019-03-27T08:15:31.687Z,118.13
2019-03-27T08:16:31.684Z,129.38
2019-03-27T08:17:31.672Z,123.75
2019-03-27T08:18:31.673Z,129.38
2019-03-27T08:19:31.658Z,135.00
2019-03-27T08:20:31.649Z,146.25
2019-03-27T08:21:31.643Z,146.25
2019-03-27T08:22:31.637Z,151.88
2019-03-27T08:23:31.632Z,129.38
2019-03-27T08:24:31.620Z,129.38
2019-03-27T08:25:31.619Z,174.38
2019-03-27T08:26:31.607Z,140.63
2019-03-27T08:27:31.656Z,180.00
2019-03-27T08:28:31.592Z,180.00
2019-03-27T08:29:31.592Z,185.63
2019-03-27T08:30:31.580Z,174.38
2019-03-27T08:31:31.571Z,174.38
2019-03-27T08:32:31.560Z,157.50
2019-03-27T08:33:31.555Z,151.88
2019-03-27T08:34:31.549Z,174.38
2019-03-27T08:35:31.540Z,196.88
2019-03-27T08:36:31.535Z,174.38
2019-03-27T08:37:31.527Z,168.75
2019-03-27T08:38:31.522Z,185.63
2019-03-27T08:39:31.521Z,185.63
2019-03-27T08:40:31.506Z,219.38
2019-03-27T08:41:31.498Z,202.50
2019-03-27T08:42:31.491Z,202.50
2019-03-27T08:43:31.483Z,202.50
2019-03-27T08:44:31.481Z,202.50
2019-03-27T08:45:31.471Z,185.63
2019-03-27T08:46:31.464Z,168.75
2019-03-27T08:47:31.462Z,151.88
2019-03-27T08:48:31.454Z,185.63
2019-03-27T08:49:31.443Z,241.88
2019-03-27T08:50:31.445Z,315.00
2019-03-27T08:51:31.428Z,331.88
2019-03-27T08:52:31.422Z,286.88
2019-03-27T08:53:31.414Z,286.88
2019-03-27T08:54:31.409Z,270.00
2019-03-27T08:55:31.393Z,230.63
2019-03-27T08:56:31.393Z,292.50
2019-03-27T08:57:31.386Z,354.38
2019-03-27T08:58:31.380Z,354.38
2019-03-27T08:59:31.372Z,354.38
2019-03-27T09:00:31.369Z,326.25
2019-03-27T09:01:31.361Z,309.38
2019-03-27T09:02:31.355Z,303.75
2019-03-27T09:03:31.344Z,292.50
2019-03-27T09:04:31.340Z,326.25
2019-03-27T09:05:31.333Z,388.13
2019-03-27T09:06:34.110Z,427.50
2019-03-27T09:07:31.317Z,438.75
2019-03-27T09:08:31.315Z,478.13
2019-03-27T09:09:31.307Z,376.88
2019-03-27T09:10:31.301Z,421.88
2019-03-27T09:11:31.290Z,433.13
2019-03-27T09:12:31.287Z,382.50
2019-03-27T09:13:31.279Z,382.50
2019-03-27T09:14:31.276Z,309.38
2019-03-27T09:15:31.269Z,258.75
2019-03-27T09:16:31.264Z,264.38
2019-03-27T09:17:31.253Z,354.38
2019-03-27T09:18:31.250Z,376.88
2019-03-27T09:19:36.094Z,337.50
2019-03-27T09:20:31.241Z,292.50
2019-03-27T09:21:31.230Z,253.13
2019-03-27T09:22:31.224Z,258.75
2019-03-27T09:23:31.217Z,264.38
2019-03-27T09:24:31.216Z,270.00
2019-03-27T09:25:31.206Z,253.13
2019-03-27T09:26:31.198Z,225.00
2019-03-27T09:27:31.197Z,241.88
2019-03-27T09:28:31.188Z,270.00
2019-03-27T09:29:31.180Z,281.25
2019-03-27T09:30:31.178Z,258.75
2019-03-27T09:31:43.941Z,247.50
2019-03-27T09:32:31.164Z,264.38
2019-03-27T09:33:31.158Z,303.75
2019-03-27T09:34:31.149Z,326.25
2019-03-27T09:35:31.153Z,258.75
2019-03-27T09:36:31.140Z,213.75
2019-03-27T09:37:31.157Z,202.50
2019-03-27T09:38:31.121Z,213.75
2019-03-27T09:39:31.127Z,225.00
2019-03-27T09:40:31.124Z,264.38
2019-03-27T09:41:31.109Z,247.50
2019-03-27T09:42:31.100Z,286.88
2019-03-27T09:43:31.097Z,275.63
2019-03-27T09:44:31.092Z,253.13
2019-03-27T09:45:31.381Z,275.63
2019-03-27T09:46:31.117Z,270.00
2019-03-27T09:47:34.353Z,264.38
2019-03-27T09:48:31.063Z,236.25
2019-03-27T09:49:31.058Z,230.63
2019-03-27T09:50:31.050Z,225.00
2019-03-27T09:51:31.056Z,196.88
2019-03-27T09:52:31.045Z,180.00
2019-03-27T09:53:31.037Z,196.88
2019-03-27T09:54:31.036Z,202.50
2019-03-27T09:55:31.020Z,213.75
2019-03-27T09:56:32.047Z,219.38
2019-03-27T09:57:31.009Z,230.63
2019-03-27T09:58:31.003Z,241.88
2019-03-27T09:59:31.002Z,258.75
2019-03-27T10:00:30.991Z,253.13
2019-03-27T10:01:30.988Z,275.63
2019-03-27T10:02:30.981Z,241.88
2019-03-27T10:03:30.971Z,258.75
2019-03-27T10:04:30.967Z,286.88
2019-03-27T10:05:30.961Z,298.13
2019-03-27T10:06:30.955Z,331.88
2019-03-27T10:07:30.947Z,331.88
2019-03-27T10:08:30.940Z,388.13
2019-03-27T10:09:30.936Z,365.63
2019-03-27T10:10:30.932Z,292.50
2019-03-27T10:11:30.923Z,286.88
2019-03-27T10:12:30.919Z,225.00
2019-03-27T10:13:30.912Z,247.50
2019-03-27T10:14:30.906Z,241.88
2019-03-27T10:15:30.913Z,253.13
2019-03-27T10:16:30.896Z,315.00
2019-03-27T10:17:30.890Z,298.13
2019-03-27T10:18:30.888Z,264.38
2019-03-27T10:19:30.882Z,326.25
2019-03-27T10:20:30.876Z,303.75
2019-03-27T10:21:30.866Z,264.38
2019-03-27T10:22:30.861Z,241.88
2019-03-27T10:23:30.852Z,230.63
2019-03-27T10:24:30.850Z,258.75
2019-03-27T10:25:30.843Z,292.50
2019-03-27T10:26:30.837Z,315.00
2019-03-27T10:27:30.831Z,286.88
2019-03-27T10:28:30.823Z,275.63
2019-03-27T10:29:30.821Z,275.63
2019-03-27T10:30:30.815Z,286.88
2019-03-27T10:31:30.805Z,303.75
2019-03-27T10:32:30.803Z,309.38
2019-03-27T10:33:30.793Z,298.13
2019-03-27T10:34:31.104Z,303.75
2019-03-27T10:35:30.804Z,298.13
2019-03-27T10:36:30.777Z,315.00
2019-03-27T10:37:30.771Z,281.25
2019-03-27T10:38:30.766Z,303.75
2019-03-27T10:39:30.760Z,337.50
2019-03-27T10:40:30.766Z,298.13
2019-03-27T10:41:30.764Z,241.88
2019-03-27T10:42:30.743Z,230.63
2019-03-27T10:43:30.737Z,247.50
2019-03-27T10:44:30.763Z,303.75
2019-03-27T10:45:30.727Z,315.00
2019-03-27T10:46:30.721Z,309.38
2019-03-27T10:47:30.714Z,298.13
2019-03-27T10:48:30.707Z,281.25
2019-03-27T10:49:30.711Z,298.13
2019-03-27T10:50:30.708Z,275.63
2019-03-27T10:51:30.691Z,270.00
2019-03-27T10:52:30.685Z,309.38
2019-03-27T10:53:30.703Z,343.13
2019-03-27T10:54:30.677Z,315.00
2019-03-27T10:55:34.251Z,247.50
2019-03-27T10:56:30.664Z,230.63
2019-03-27T10:57:30.651Z,219.38
2019-03-27T10:58:30.662Z,208.13
2019-03-27T10:59:30.684Z,180.00
2019-03-27T11:00:30.640Z,157.50
2019-03-27T11:01:30.640Z,196.88
2019-03-27T11:02:30.678Z,202.50
2019-03-27T11:03:30.735Z,202.50
2019-03-27T11:04:30.629Z,168.75
2019-03-27T11:05:30.618Z,140.63
2019-03-27T11:06:30.612Z,157.50
2019-03-27T11:07:30.606Z,168.75
2019-03-27T11:08:30.597Z,185.63
2019-03-27T11:09:30.592Z,196.88
2019-03-27T11:10:30.586Z,191.25
2019-03-27T11:11:30.578Z,202.50
2019-03-27T11:12:30.575Z,247.50
2019-03-27T11:13:30.569Z,275.63
2019-03-27T11:14:37.857Z,309.38
2019-03-27T11:15:30.558Z,281.25
2019-03-27T11:16:30.552Z,264.38
2019-03-27T11:17:30.545Z,315.00
2019-03-27T11:18:30.544Z,348.75
2019-03-27T11:19:33.423Z,343.13
2019-03-27T11:20:31.639Z,326.25
2019-03-27T11:21:30.543Z,281.25
2019-03-27T11:22:30.518Z,315.00
2019-03-27T11:23:30.513Z,236.25
2019-03-27T11:24:30.507Z,202.50
2019-03-27T11:25:33.094Z,230.63
2019-03-27T11:26:30.497Z,225.00
2019-03-27T11:27:30.494Z,253.13
2019-03-27T11:28:30.490Z,348.75
2019-03-27T11:29:30.481Z,343.13
2019-03-27T11:30:30.474Z,360.00
2019-03-27T11:31:30.474Z,354.38
2019-03-27T11:32:30.461Z,365.63
2019-03-27T11:33:30.461Z,303.75
2019-03-27T11:34:30.464Z,264.38
2019-03-27T11:35:30.449Z,281.25
2019-03-27T11:36:30.443Z,286.88
2019-03-27T11:37:30.446Z,247.50
2019-03-27T11:38:30.433Z,219.38
2019-03-27T11:39:30.426Z,281.25
2019-03-27T11:40:30.423Z,320.63
2019-03-27T11:41:30.415Z,315.00
2019-03-27T11:42:30.411Z,264.38
2019-03-27T11:43:30.406Z,247.50
2019-03-27T11:44:30.401Z,202.50
2019-03-27T11:45:30.400Z,236.25
2019-03-27T11:46:32.311Z,219.38
2019-03-27T11:47:30.382Z,202.50
2019-03-27T11:48:30.375Z,196.88
2019-03-27T11:49:30.378Z,213.75
2019-03-27T11:50:43.694Z,213.75
2019-03-27T11:51:30.364Z,219.38
2019-03-27T11:52:30.357Z,213.75
2019-03-27T11:53:30.353Z,213.75
2019-03-27T11:54:30.346Z,208.13
2019-03-27T11:55:30.351Z,236.25
2019-03-27T11:56:30.341Z,281.25
2019-03-27T11:57:30.333Z,343.13
2019-03-27T11:58:30.327Z,371.25
2019-03-27T11:59:30.322Z,388.13
2019-03-27T12:00:30.314Z,348.75
2019-03-27T12:01:40.598Z,253.13
2019-03-27T12:02:30.306Z,247.50
2019-03-27T12:03:30.297Z,315.00
2019-03-27T12:04:30.310Z,376.88
2019-03-27T12:05:30.290Z,393.75
2019-03-27T12:06:30.284Z,371.25
2019-03-27T12:07:30.282Z,309.38
2019-03-27T12:08:30.275Z,258.75
2019-03-27T12:09:30.312Z,253.13
2019-03-27T12:10:30.263Z,303.75
2019-03-27T12:11:30.259Z,275.63
2019-03-27T12:12:30.261Z,298.13
2019-03-27T12:13:30.261Z,298.13
2019-03-27T12:14:30.268Z,253.13
2019-03-27T12:15:30.299Z,236.25
2019-03-27T12:16:30.237Z,219.38
2019-03-27T12:17:30.227Z,202.50
2019-03-27T12:18:32.080Z,202.50
2019-03-27T12:19:30.217Z,208.13
2019-03-27T12:20:30.271Z,202.50
2019-03-27T12:21:30.207Z,264.38
2019-03-27T12:22:30.212Z,286.88
2019-03-27T12:23:30.196Z,253.13
2019-03-27T12:24:30.198Z,247.50
2019-03-27T12:25:30.190Z,225.00
2019-03-27T12:26:30.180Z,213.75
2019-03-27T12:27:30.193Z,196.88
2019-03-27T12:28:30.170Z,185.63
2019-03-27T12:29:30.166Z,191.25
2019-03-27T12:30:30.164Z,191.25
2019-03-27T12:31:30.165Z,196.88
2019-03-27T12:32:30.152Z,213.75
2019-03-27T12:33:30.145Z,247.50
2019-03-27T12:34:30.143Z,225.00
2019-03-27T12:35:30.138Z,196.88
2019-03-27T12:36:30.137Z,174.38
2019-03-27T12:37:30.124Z,151.88
2019-03-27T12:38:30.119Z,140.63
2019-03-27T12:39:30.116Z,151.88
2019-03-27T12:40:30.109Z,157.50
2019-03-27T12:41:32.915Z,146.25
2019-03-27T12:42:30.101Z,135.00
2019-03-27T12:43:30.096Z,135.00
2019-03-27T12:44:30.093Z,146.25
2019-03-27T12:45:30.083Z,151.88
2019-03-27T12:46:30.775Z,157.50
2019-03-27T12:47:30.073Z,168.75
2019-03-27T12:48:30.066Z,202.50
2019-03-27T12:49:30.061Z,241.88
2019-03-27T12:50:30.058Z,208.13